createdAt,value
2019-04-04T13:19:38.296Z,34.27
2019-04-04T13:22:05.715Z,35.03
2019-04-04T13:24:33.045Z,32.13
2019-04-04T13:27:00.415Z,34.53
2019-04-04T13:29:27.723Z,31.77
2019-04-04T13:31:55.012Z,35.73
2019-04-04T13:34:22.367Z,30.90
2019-04-04T13:36:49.718Z,31.95
2019-04-04T13:39:17.076Z,33.48
2019-04-04T13:41:44.381Z,33.80
2019-04-04T13:44:11.767Z,29.95
2019-04-04T13:46:39.066Z,35.52
2019-04-04T13:49:06.350Z,32.93
2019-04-04T13:51:33.664Z,34.43
2019-04-04T13:54:00.969Z,32.42
2019-04-04T13:56:29.307Z,32.80
2019-04-04T13:58:58.969Z,32.75
2019-04-04T14:01:25.998Z,32.75
2019-04-04T14:03:53.288Z,40.43
2019-04-04T14:06:20.664Z,34.60
2019-04-04T14:08:48.051Z,31.70
2019-04-04T14:11:15.422Z,36.50
2019-04-04T14:13:42.858Z,32.17
2019-04-04T14:16:10.334Z,38.78
2019-04-04T14:18:39.956Z,34.73
2019-04-04T14:21:06.828Z,35.85
2019-04-04T14:23:34.144Z,33.00
2019-04-04T14:26:01.591Z,35.68
2019-04-04T14:28:29.306Z,36.00
2019-04-04T14:30:56.832Z,30.55
2019-04-04T14:33:24.170Z,30.40
2019-04-04T14:35:51.656Z,35.75
2019-04-04T14:38:19.049Z,36.30
2019-04-04T14:40:46.527Z,33.10
2019-04-04T14:43:13.808Z,28.32
2019-04-04T14:45:41.152Z,30.12
2019-04-04T14:48:08.736Z,34.35
2019-04-04T14:50:37.514Z,32.48
2019-04-04T14:53:04.955Z,37.03
2019-04-04T14:55:32.252Z,37.28
2019-04-04T14:57:59.556Z,37.88
2019-04-04T15:00:26.920Z,34.90
2019-04-04T15:02:54.241Z,34.90
2019-04-04T15:05:21.551Z,32.73
2019-04-04T15:07:48.935Z,35.98
2019-04-04T15:10:16.291Z,34.35
2019-04-04T15:12:43.739Z,35.58
2019-04-04T15:15:11.201Z,34.45
2019-04-04T15:17:38.513Z,32.48
2019-04-04T15:20:06.667Z,38.23
2019-04-04T15:22:34.034Z,38.08
2019-04-04T15:25:01.394Z,32.70
2019-04-04T15:27:28.794Z,34.95
2019-04-04T15:29:56.107Z,34.08
2019-04-04T15:32:23.573Z,39.55
2019-04-04T15:34:50.944Z,36.85
2019-04-04T15:37:18.339Z,33.18
2019-04-04T15:39:45.711Z,36.53
2019-04-04T15:42:13.101Z,37.33
2019-04-04T15:44:40.404Z,34.92
2019-04-04T15:47:07.787Z,34.78
2019-04-04T15:49:35.170Z,42.10
2019-04-04T15:52:02.490Z,35.40
2019-04-04T15:54:29.887Z,36.30
2019-04-04T15:56:57.429Z,34.65
2019-04-04T15:59:24.756Z,38.20
2019-04-04T16:01:52.045Z,35.23
2019-04-04T16:04:19.430Z,35.50
2019-04-04T16:06:46.873Z,37.35
2019-04-04T16:09:14.213Z,38.98
2019-04-04T16:11:49.250Z,32.08
2019-04-04T16:14:10.565Z,37.20
2019-04-04T16:16:37.881Z,36.77
2019-04-04T16:19:05.188Z,34.27
2019-04-04T16:21:32.472Z,36.20
2019-04-04T16:23:59.806Z,35.73
2019-04-04T16:26:27.233Z,34.88
2019-04-04T16:28:54.552Z,36.33
2019-04-04T16:31:21.938Z,36.90
2019-04-04T16:33:49.307Z,34.08
2019-04-04T16:36:16.689Z,37.73
2019-04-04T16:38:43.983Z,33.02
2019-04-04T16:41:11.295Z,35.15
2019-04-04T16:43:38.730Z,34.25
2019-04-04T16:46:06.113Z,34.63
2019-04-04T16:48:33.727Z,36.75
2019-04-04T16:51:01.107Z,35.43
2019-04-04T16:53:30.562Z,38.02
2019-04-04T16:55:57.955Z,37.45
2019-04-04T16:58:25.345Z,34.95
2019-04-04T17:00:52.676Z,37.10
2019-04-04T17:03:20.074Z,37.33
2019-04-04T17:05:47.423Z,33.65
2019-04-04T17:08:14.752Z,34.70
2019-04-04T17:10:42.047Z,36.13
2019-04-04T17:13:09.382Z,34.53
2019-04-04T17:15:36.710Z,36.45
2019-04-04T17:18:04.069Z,38.40
2019-04-04T17:20:31.545Z,40.90
2019-04-04T17:22:58.975Z,39.78
2019-04-04T17:25:26.343Z,40.88
2019-04-04T17:27:53.692Z,37.00
2019-04-04T17:30:21.019Z,36.65
2019-04-04T17:32:49.610Z,40.43
2019-04-04T17:35:17.829Z,40.95
2019-04-04T17:37:45.253Z,40.78
2019-04-04T17:40:14.621Z,41.65
2019-04-04T17:42:41.915Z,42.88
2019-04-04T17:45:09.487Z,37.45
2019-04-04T17:47:37.422Z,42.88
2019-04-04T17:50:08.434Z,41.85
2019-04-04T17:52:35.801Z,183.32
2019-04-04T17:55:08.845Z,62.50
2019-04-04T17:57:41.010Z,47.53
2019-04-04T18:00:09.468Z,45.23
2019-04-04T18:02:36.889Z,46.33
2019-04-04T18:05:08.859Z,49.08
2019-04-04T18:07:36.237Z,49.03
2019-04-04T18:10:04.866Z,43.52
2019-04-04T18:12:40.157Z,48.25
2019-04-04T18:15:01.272Z,49.27
2019-04-04T18:17:28.583Z,47.95
2019-04-04T18:19:59.673Z,47.93
2019-04-04T18:22:26.969Z,48.33
2019-04-04T18:24:54.265Z,48.87
2019-04-04T18:27:21.635Z,51.65
2019-04-04T18:29:48.946Z,53.42
2019-04-04T18:32:16.300Z,49.13
2019-04-04T18:34:44.023Z,52.20
2019-04-04T18:37:11.756Z,49.13
2019-04-04T18:39:39.148Z,51.20
2019-04-04T18:42:06.463Z,47.85
2019-04-04T18:44:34.019Z,48.68
2019-04-04T18:47:01.429Z,47.20
2019-04-04T18:49:36.792Z,51.20
2019-04-04T18:52:05.048Z,52.62
2019-04-04T18:54:32.372Z,48.05
2019-04-04T18:57:00.093Z,52.40
2019-04-04T18:59:34.264Z,46.83
2019-04-04T19:02:01.727Z,54.23
2019-04-04T19:04:29.057Z,50.15
2019-04-04T19:07:00.783Z,55.05
2019-04-04T19:09:38.827Z,52.10
2019-04-04T19:12:08.146Z,55.73
2019-04-04T19:14:35.514Z,60.75
2019-04-04T19:17:08.592Z,54.48
2019-04-04T19:19:35.998Z,52.78
2019-04-04T19:22:09.547Z,62.10
2019-04-04T19:24:36.996Z,59.65
2019-04-04T19:27:04.395Z,57.38
2019-04-04T19:29:31.779Z,53.55
2019-04-04T19:31:59.247Z,66.77
2019-04-04T19:34:26.641Z,56.02
2019-04-04T19:36:54.052Z,60.92
2019-04-04T19:39:21.424Z,69.77
2019-04-04T19:41:48.812Z,64.00
2019-04-04T19:44:16.148Z,63.85
2019-04-04T19:46:43.581Z,67.25
2019-04-04T19:49:10.968Z,61.55
2019-04-04T19:51:38.353Z,66.82
2019-04-04T19:54:05.749Z,60.88
2019-04-04T19:56:33.130Z,61.13
2019-04-04T19:59:00.772Z,70.60
2019-04-04T20:01:28.243Z,62.15
2019-04-04T20:03:55.692Z,64.20
2019-04-04T20:06:23.069Z,66.77
2019-04-04T20:08:53.547Z,69.03
2019-04-04T20:11:19.783Z,65.55
2019-04-04T20:13:47.158Z,73.22
2019-04-04T20:16:14.523Z,65.45
2019-04-04T20:18:41.894Z,67.87
2019-04-04T20:21:09.284Z,66.20
2019-04-04T20:23:36.578Z,65.95
2019-04-04T20:26:03.969Z,67.92
2019-04-04T20:28:31.268Z,68.52
2019-04-04T20:30:58.801Z,62.23
2019-04-04T20:33:26.192Z,71.75
2019-04-04T20:35:53.527Z,68.20
2019-04-04T20:38:21.005Z,67.03
2019-04-04T20:40:48.389Z,62.75
2019-04-04T20:43:15.755Z,68.30
2019-04-04T20:45:43.169Z,68.10
2019-04-04T20:48:10.557Z,69.75
2019-04-04T20:50:37.929Z,71.25
2019-04-04T20:53:05.383Z,59.35
2019-04-04T20:55:32.885Z,60.52
2019-04-04T20:58:00.215Z,64.62
2019-04-04T21:00:27.603Z,61.88
2019-04-04T21:02:54.926Z,72.17
2019-04-04T21:05:22.369Z,66.67
2019-04-04T21:07:49.705Z,65.50
2019-04-04T21:10:17.166Z,69.92
2019-04-04T21:12:44.594Z,69.82
2019-04-04T21:15:12.769Z,73.97
2019-04-04T21:17:40.337Z,60.45
2019-04-04T21:20:08.907Z,68.47
2019-04-04T21:22:36.321Z,70.30
2019-04-04T21:25:04.061Z,63.28
2019-04-04T21:27:31.521Z,72.65
2019-04-04T21:29:58.904Z,69.25
2019-04-04T21:32:26.402Z,69.85
2019-04-04T21:34:53.831Z,72.10
2019-04-04T21:37:21.257Z,76.02
2019-04-04T21:39:48.717Z,74.47
2019-04-04T21:42:16.115Z,73.95
2019-04-04T21:44:43.562Z,83.47
2019-04-04T21:47:10.982Z,74.77
2019-04-04T21:49:38.320Z,71.17
2019-04-04T21:52:05.777Z,70.85
2019-04-04T21:54:33.223Z,74.50
2019-04-04T21:57:00.637Z,80.80
2019-04-04T21:59:28.023Z,80.45
2019-04-04T22:01:55.607Z,89.85
2019-04-04T22:04:23.048Z,84.13
2019-04-04T22:06:50.574Z,88.80
2019-04-04T22:09:18.613Z,83.50
2019-04-04T22:11:46.070Z,87.47
2019-04-04T22:14:21.472Z,85.57
2019-04-04T22:16:42.737Z,80.92
2019-04-04T22:19:10.226Z,83.82
2019-04-04T22:21:37.668Z,81.90
2019-04-04T22:24:05.102Z,83.27
2019-04-04T22:26:32.520Z,85.60
2019-04-04T22:28:59.972Z,90.03
2019-04-04T22:31:27.473Z,79.22
2019-04-04T22:33:55.367Z,86.42
2019-04-04T22:36:22.854Z,76.10
2019-04-04T22:38:50.366Z,78.65
2019-04-04T22:41:17.967Z,79.22
2019-04-04T22:43:45.399Z,81.42
2019-04-04T22:46:13.280Z,91.57
2019-04-04T22:48:40.728Z,82.53
2019-04-04T22:51:08.128Z,81.87
2019-04-04T22:53:35.769Z,90.70
2019-04-04T22:56:03.403Z,76.53
2019-04-04T22:58:30.964Z,77.53
2019-04-04T23:00:58.554Z,89.37
2019-04-04T23:03:27.852Z,81.72
2019-04-04T23:05:55.726Z,82.27
2019-04-04T23:08:24.658Z,81.30
2019-04-04T23:10:52.333Z,78.62
2019-04-04T23:13:20.074Z,80.50
2019-04-04T23:15:47.671Z,84.95
2019-04-04T23:18:15.182Z,88.30
2019-04-04T23:20:42.728Z,82.47
2019-04-04T23:23:10.316Z,83.80
2019-04-04T23:25:37.910Z,75.52
2019-04-04T23:28:05.493Z,78.22
2019-04-04T23:30:33.147Z,84.00
2019-04-04T23:33:00.793Z,80.12
2019-04-04T23:35:28.410Z,75.30
2019-04-04T23:37:56.001Z,81.95
2019-04-04T23:40:23.633Z,80.00
2019-04-04T23:42:51.222Z,83.80
2019-04-04T23:45:18.703Z,72.85
2019-04-04T23:47:46.382Z,72.67
2019-04-04T23:50:14.861Z,74.90
2019-04-04T23:52:42.535Z,78.25
2019-04-04T23:55:10.188Z,80.65
2019-04-04T23:57:37.837Z,74.25
